sensor_id;sensor_type;location;lat;lon;timestamp;pressure;altitude;pressure_sealevel;temperature;humidity
42289;BME280;30230;47.520;19.016;2023-04-04T00:00:24;99279.88;;;2.54;47.86
42289;BME280;30230;47.520;19.016;2023-04-04T00:02:25;99278.16;;;2.53;48.69
42289;BME280;30230;47.520;19.016;2023-04-04T00:04:26;99271.47;;;2.49;46.76
42289;BME280;30230;47.520;19.016;2023-04-04T00:06:27;99282.66;;;2.52;46.10
42289;BME280;30230;47.520;19.016;2023-04-04T00:08:27;99280.53;;;2.56;47.37
42289;BME280;30230;47.520;19.016;2023-04-04T00:10:27;99267.66;;;2.51;46.98
42289;BME280;30230;47.520;19.016;2023-04-04T00:12:28;99281.38;;;2.56;45.90
42289;BME280;30230;47.520;19.016;2023-04-04T00:14:28;99280.63;;;2.64;45.83
42289;BME280;30230;47.520;19.016;2023-04-04T00:16:29;99284.97;;;2.65;46.53
42289;BME280;30230;47.520;19.016;2023-04-04T00:18:29;99283.28;;;2.64;46.17
42289;BME280;30230;47.520;19.016;2023-04-04T00:20:30;99288.00;;;2.52;46.79
42289;BME280;30230;47.520;19.016;2023-04-04T00:22:30;99288.31;;;2.67;46.61
42289;BME280;30230;47.520;19.016;2023-04-04T00:24:31;99262.41;;;2.59;46.00
42289;BME280;30230;47.520;19.016;2023-04-04T00:26:31;99297.31;;;2.48;45.43
42289;BME280;30230;47.520;19.016;2023-04-04T00:28:32;99274.22;;;2.39;46.25
42289;BME280;30230;47.520;19.016;2023-04-04T00:30:33;99286.16;;;2.35;46.78
42289;BME280;30230;47.520;19.016;2023-04-04T00:32:34;99299.66;;;2.51;47.32
42289;BME280;30230;47.520;19.016;2023-04-04T00:34:34;99285.19;;;2.54;47.20
42289;BME280;30230;47.520;19.016;2023-04-04T00:36:35;99293.09;;;2.46;46.43
42289;BME280;30230;47.520;19.016;2023-04-04T00:38:36;99287.00;;;2.35;46.13
42289;BME280;30230;47.520;19.016;2023-04-04T00:40:46;99298.09;;;2.31;47.60
42289;BME280;30230;47.520;19.016;2023-04-04T00:42:47;99302.31;;;2.33;46.29
42289;BME280;30230;47.520;19.016;2023-04-04T00:44:47;99297.22;;;2.58;47.24
42289;BME280;30230;47.520;19.016;2023-04-04T00:46:48;99281.00;;;2.51;46.55
42289;BME280;30230;47.520;19.016;2023-04-04T00:48:48;99287.84;;;2.36;46.98
42289;BME280;30230;47.520;19.016;2023-04-04T00:50:50;99292.31;;;2.35;46.99
42289;BME280;30230;47.520;19.016;2023-04-04T00:52:50;99287.00;;;2.35;47.52
42289;BME280;30230;47.520;19.016;2023-04-04T00:54:51;99292.44;;;2.16;46.66
42289;BME280;30230;47.520;19.016;2023-04-04T00:56:52;99290.44;;;2.28;48.02
42289;BME280;30230;47.520;19.016;2023-04-04T00:58:54;99275.63;;;2.16;47.65
42289;BME280;30230;47.520;19.016;2023-04-04T01:00:56;99286.97;;;2.18;48.04
42289;BME280;30230;47.520;19.016;2023-04-04T01:02:56;99278.22;;;2.25;47.36
42289;BME280;30230;47.520;19.016;2023-04-04T01:04:57;99279.50;;;2.21;47.62
42289;BME280;30230;47.520;19.016;2023-04-04T01:06:58;99270.91;;;2.09;47.64
42289;BME280;30230;47.520;19.016;2023-04-04T01:08:59;99264.22;;;2.41;46.60
42289;BME280;30230;47.520;19.016;2023-04-04T01:11:00;99263.28;;;2.15;46.74
42289;BME280;30230;47.520;19.016;2023-04-04T01:13:00;99262.78;;;2.29;46.41
42289;BME280;30230;47.520;19.016;2023-04-04T01:15:01;99258.19;;;2.21;46.50
42289;BME280;30230;47.520;19.016;2023-04-04T01:17:02;99261.84;;;2.20;47.40
42289;BME280;30230;47.520;19.016;2023-04-04T01:19:05;99252.63;;;1.97;47.07
42289;BME280;30230;47.520;19.016;2023-04-04T01:21:10;99248.59;;;2.11;46.77
42289;BME280;30230;47.520;19.016;2023-04-04T01:23:11;99244.78;;;2.13;48.18
42289;BME280;30230;47.520;19.016;2023-04-04T01:25:13;99239.22;;;2.06;48.08
42289;BME280;30230;47.520;19.016;2023-04-04T01:27:14;99240.22;;;1.78;47.93
42289;BME280;30230;47.520;19.016;2023-04-04T01:29:15;99238.97;;;2.00;48.21
42289;BME280;30230;47.520;19.016;2023-04-04T01:31:21;99238.97;;;2.00;48.65
42289;BME280;30230;47.520;19.016;2023-04-04T01:33:27;99237.16;;;2.00;47.37
42289;BME280;30230;47.520;19.016;2023-04-04T01:37:57;99237.38;;;1.89;47.65
42289;BME280;30230;47.520;19.016;2023-04-04T01:42:08;99219.66;;;1.98;48.13
42289;BME280;30230;47.520;19.016;2023-04-04T01:44:09;99217.28;;;1.95;48.45
42289;BME280;30230;47.520;19.016;2023-04-04T01:46:10;99218.88;;;1.88;48.14
42289;BME280;30230;47.520;19.016;2023-04-04T01:48:11;99221.53;;;1.88;48.32
42289;BME280;30230;47.520;19.016;2023-04-04T01:50:12;99215.06;;;1.90;47.92
42289;BME280;30230;47.520;19.016;2023-04-04T01:52:12;99205.72;;;1.86;49.23
42289;BME280;30230;47.520;19.016;2023-04-04T01:54:13;99211.16;;;2.12;48.34
42289;BME280;30230;47.520;19.016;2023-04-04T01:56:13;99201.25;;;2.04;48.41
42289;BME280;30230;47.520;19.016;2023-04-04T01:58:14;99199.25;;;2.06;49.02
42289;BME280;30230;47.520;19.016;2023-04-04T02:00:14;99192.63;;;2.11;48.53
42289;BME280;30230;47.520;19.016;2023-04-04T02:02:15;99189.81;;;1.94;48.92
42289;BME280;30230;47.520;19.016;2023-04-04T02:04:16;99185.75;;;1.90;48.94
42289;BME280;30230;47.520;19.016;2023-04-04T02:06:16;99185.25;;;1.87;49.35
42289;BME280;30230;47.520;19.016;2023-04-04T02:08:16;99179.00;;;1.96;49.07
42289;BME280;30230;47.520;19.016;2023-04-04T02:10:17;99173.38;;;1.81;49.35
42289;BME280;30230;47.520;19.016;2023-04-04T02:12:17;99171.94;;;1.87;49.30
42289;BME280;30230;47.520;19.016;2023-04-04T02:14:18;99141.94;;;1.67;48.86
42289;BME280;30230;47.520;19.016;2023-04-04T02:16:19;99172.00;;;1.95;49.46
42289;BME280;30230;47.520;19.016;2023-04-04T02:18:20;99165.06;;;1.84;48.64
42289;BME280;30230;47.520;19.016;2023-04-04T02:20:20;99166.94;;;1.74;49.00
42289;BME280;30230;47.520;19.016;2023-04-04T02:22:21;99152.84;;;1.64;50.20
42289;BME280;30230;47.520;19.016;2023-04-04T02:24:21;99148.59;;;1.53;50.44
42289;BME280;30230;47.520;19.016;2023-04-04T02:26:21;99159.19;;;1.63;49.76
42289;BME280;30230;47.520;19.016;2023-04-04T02:28:22;99157.72;;;1.50;50.80
42289;BME280;30230;47.520;19.016;2023-04-04T02:30:22;99155.19;;;1.49;50.72
42289;BME280;30230;47.520;19.016;2023-04-04T02:32:23;99140.31;;;1.56;50.30
42289;BME280;30230;47.520;19.016;2023-04-04T02:34:23;99147.16;;;1.59;50.47
42289;BME280;30230;47.520;19.016;2023-04-04T02:36:23;99145.25;;;1.69;49.61
42289;BME280;30230;47.520;19.016;2023-04-04T02:38:24;99127.13;;;1.54;50.33
42289;BME280;30230;47.520;19.016;2023-04-04T02:40:25;99141.94;;;1.67;50.00
42289;BME280;30230;47.520;19.016;2023-04-04T02:42:26;99137.72;;;1.64;50.41
42289;BME280;30230;47.520;19.016;2023-04-04T02:44:26;99126.78;;;1.67;49.71
42289;BME280;30230;47.520;19.016;2023-04-04T02:46:27;99132.72;;;1.61;50.21
42289;BME280;30230;47.520;19.016;2023-04-04T02:48:27;99131.28;;;1.39;50.92
42289;BME280;30230;47.520;19.016;2023-04-04T02:50:28;99134.16;;;1.55;50.92
42289;BME280;30230;47.520;19.016;2023-04-04T02:52:28;99148.75;;;1.51;50.81
42289;BME280;30230;47.520;19.016;2023-04-04T02:54:28;99138.47;;;1.56;50.09
42289;BME280;30230;47.520;19.016;2023-04-04T02:56:29;99152.91;;;1.54;50.82
42289;BME280;30230;47.520;19.016;2023-04-04T02:58:33;99142.25;;;1.81;49.84
42289;BME280;30230;47.520;19.016;2023-04-04T03:00:33;99149.22;;;1.65;49.92
42289;BME280;30230;47.520;19.016;2023-04-04T03:02:34;99133.06;;;1.48;50.35
42289;BME280;30230;47.520;19.016;2023-04-04T03:04:34;99150.13;;;1.55;50.62
42289;BME280;30230;47.520;19.016;2023-04-04T03:06:35;99136.72;;;1.47;50.07
42289;BME280;30230;47.520;19.016;2023-04-04T03:08:36;99153.63;;;1.56;50.06
42289;BME280;30230;47.520;19.016;2023-04-04T03:10:37;99159.81;;;1.47;51.22
42289;BME280;30230;47.520;19.016;2023-04-04T03:12:37;99158.69;;;1.49;51.11
42289;BME280;30230;47.520;19.016;2023-04-04T03:14:37;99160.22;;;1.52;50.92
42289;BME280;30230;47.520;19.016;2023-04-04T03:16:38;99159.03;;;1.64;50.37
42289;BME280;30230;47.520;19.016;2023-04-04T03:18:38;99159.91;;;1.55;50.75
42289;BME280;30230;47.520;19.016;2023-04-04T03:20:39;99169.19;;;1.51;50.39
42289;BME280;30230;47.520;19.016;2023-04-04T03:22:40;99165.00;;;1.48;51.04
42289;BME280;30230;47.520;19.016;2023-04-04T03:24:41;99161.09;;;1.43;50.66
42289;BME280;30230;47.520;19.016;2023-04-04T03:26:41;99174.16;;;1.36;51.01
42289;BME280;30230;47.520;19.016;2023-04-04T03:28:42;99165.88;;;1.39;51.63
42289;BME280;30230;47.520;19.016;2023-04-04T03:30:42;99163.69;;;1.35;51.81
42289;BME280;30230;47.520;19.016;2023-04-04T03:32:43;99149.97;;;1.29;50.94
42289;BME280;30230;47.520;19.016;2023-04-04T03:34:43;99166.28;;;1.44;50.26
42289;BME280;30230;47.520;19.016;2023-04-04T03:36:44;99175.00;;;1.37;51.20
42289;BME280;30230;47.520;19.016;2023-04-04T03:38:45;99169.41;;;1.40;51.35
42289;BME280;30230;47.520;19.016;2023-04-04T03:40:46;99178.84;;;1.52;51.67
42289;BME280;30230;47.520;19.016;2023-04-04T03:42:46;99175.41;;;1.42;51.40
42289;BME280;30230;47.520;19.016;2023-04-04T03:44:47;99172.38;;;1.27;51.59
42289;BME280;30230;47.520;19.016;2023-04-04T03:46:47;99177.00;;;1.35;51.96
42289;BME280;30230;47.520;19.016;2023-04-04T03:48:48;99182.44;;;1.33;51.83
42289;BME280;30230;47.520;19.016;2023-04-04T03:50:48;99174.84;;;1.38;51.12
42289;BME280;30230;47.520;19.016;2023-04-04T03:52:49;99163.69;;;1.35;51.18
42289;BME280;30230;47.520;19.016;2023-04-04T03:54:49;99171.97;;;1.22;50.89
42289;BME280;30230;47.520;19.016;2023-04-04T03:56:50;99166.91;;;1.28;51.11
42289;BME280;30230;47.520;19.016;2023-04-04T03:58:51;99169.56;;;1.28;52.12
42289;BME280;30230;47.520;19.016;2023-04-04T04:00:54;99171.50;;;1.36;52.18
42289;BME280;30230;47.520;19.016;2023-04-04T04:02:55;99173.81;;;1.49;51.07
42289;BME280;30230;47.520;19.016;2023-04-04T04:04:55;99172.81;;;1.50;51.30
42289;BME280;30230;47.520;19.016;2023-04-04T04:06:56;99173.13;;;1.47;51.23
42289;BME280;30230;47.520;19.016;2023-04-04T04:08:56;99168.13;;;1.34;51.48
42289;BME280;30230;47.520;19.016;2023-04-04T04:11:05;99154.75;;;1.26;50.97
42289;BME280;30230;47.520;19.016;2023-04-04T04:13:05;99160.44;;;1.41;51.06
42289;BME280;30230;47.520;19.016;2023-04-04T04:15:06;99164.75;;;1.42;51.23
42289;BME280;30230;47.520;19.016;2023-04-04T04:17:07;99162.09;;;1.42;50.67
42289;BME280;30230;47.520;19.016;2023-04-04T04:19:07;99157.81;;;1.31;51.48
42289;BME280;30230;47.520;19.016;2023-04-04T04:21:08;99161.97;;;1.34;51.48
42289;BME280;30230;47.520;19.016;2023-04-04T04:23:08;99151.16;;;1.45;51.44
42289;BME280;30230;47.520;19.016;2023-04-04T04:25:09;99153.88;;;1.35;50.62
42289;BME280;30230;47.520;19.016;2023-04-04T04:27:09;99162.81;;;1.34;51.75
42289;BME280;30230;47.520;19.016;2023-04-04T04:29:10;99142.72;;;1.22;51.15
42289;BME280;30230;47.520;19.016;2023-04-04T04:31:10;99160.72;;;1.38;51.04
42289;BME280;30230;47.520;19.016;2023-04-04T04:33:11;99159.31;;;1.34;50.84
42289;BME280;30230;47.520;19.016;2023-04-04T04:35:12;99157.66;;;1.33;52.84
42289;BME280;30230;47.520;19.016;2023-04-04T04:37:12;99154.16;;;1.32;52.35
42289;BME280;30230;47.520;19.016;2023-04-04T04:39:12;99160.16;;;1.34;53.34
42289;BME280;30230;47.520;19.016;2023-04-04T04:41:13;99165.34;;;1.36;52.80
42289;BME280;30230;47.520;19.016;2023-04-04T04:43:13;99156.66;;;1.34;52.34
42289;BME280;30230;47.520;19.016;2023-04-04T04:45:14;99159.47;;;1.32;52.23
42289;BME280;30230;47.520;19.016;2023-04-04T04:47:14;99154.72;;;1.36;51.95
42289;BME280;30230;47.520;19.016;2023-04-04T04:49:15;99156.94;;;1.40;51.94
42289;BME280;30230;47.520;19.016;2023-04-04T04:51:16;99161.03;;;1.35;52.67
42289;BME280;30230;47.520;19.016;2023-04-04T04:53:16;99156.19;;;1.48;52.38
42289;BME280;30230;47.520;19.016;2023-04-04T04:55:17;99155.19;;;1.49;51.70
42289;BME280;30230;47.520;19.016;2023-04-04T04:57:18;99152.06;;;1.53;51.37
42289;BME280;30230;47.520;19.016;2023-04-04T04:59:18;99144.25;;;1.52;51.75
42289;BME280;30230;47.520;19.016;2023-04-04T05:01:19;99154.91;;;1.52;51.58
42289;BME280;30230;47.520;19.016;2023-04-04T05:03:19;99159.16;;;1.45;51.63
42289;BME280;30230;47.520;19.016;2023-04-04T05:05:19;99159.81;;;1.47;51.55
42289;BME280;30230;47.520;19.016;2023-04-04T05:07:20;99160.28;;;1.60;52.03
42289;BME280;30230;47.520;19.016;2023-04-04T05:09:21;99152.41;;;1.50;50.74
42289;BME280;30230;47.520;19.016;2023-04-04T05:11:21;99152.41;;;1.50;51.97
42289;BME280;30230;47.520;19.016;2023-04-04T05:13:22;99148.34;;;1.46;52.88
42289;BME280;30230;47.520;19.016;2023-04-04T05:15:26;99144.53;;;1.49;52.80
42289;BME280;30230;47.520;19.016;2023-04-04T05:17:28;99148.03;;;1.49;51.96
42289;BME280;30230;47.520;19.016;2023-04-04T05:19:28;99142.25;;;1.54;51.17
42289;BME280;30230;47.520;19.016;2023-04-04T05:21:29;99149.56;;;1.52;51.41
42289;BME280;30230;47.520;19.016;2023-04-04T05:23:29;99142.88;;;1.48;51.39
42289;BME280;30230;47.520;19.016;2023-04-04T05:25:30;99149.72;;;1.50;51.01
42289;BME280;30230;47.520;19.016;2023-04-04T05:27:30;99147.00;;;1.60;50.44
42289;BME280;30230;47.520;19.016;2023-04-04T05:29:31;99148.69;;;1.61;50.64
42289;BME280;30230;47.520;19.016;2023-04-04T05:31:32;99149.66;;;1.60;50.57
42289;BME280;30230;47.520;19.016;2023-04-04T05:33:33;99131.41;;;1.65;50.77
42289;BME280;30230;47.520;19.016;2023-04-04T05:35:33;99166.50;;;1.78;48.81
42289;BME280;30230;47.520;19.016;2023-04-04T05:37:37;99154.72;;;1.81;48.82
42289;BME280;30230;47.520;19.016;2023-04-04T05:39:38;99155.63;;;1.90;48.53
42289;BME280;30230;47.520;19.016;2023-04-04T05:41:38;99156.69;;;1.79;47.52
42289;BME280;30230;47.520;19.016;2023-04-04T05:43:39;99163.00;;;1.96;47.79
42289;BME280;30230;47.520;19.016;2023-04-04T05:45:39;99170.16;;;1.95;48.00
42289;BME280;30230;47.520;19.016;2023-04-04T05:47:42;99164.78;;;2.05;47.87
42289;BME280;30230;47.520;19.016;2023-04-04T05:49:43;99155.63;;;1.90;47.47
42289;BME280;30230;47.520;19.016;2023-04-04T05:51:44;99161.41;;;2.21;48.67
42289;BME280;30230;47.520;19.016;2023-04-04T05:53:44;99166.06;;;2.01;47.73
42289;BME280;30230;47.520;19.016;2023-04-04T05:55:53;99165.69;;;1.96;47.37
42289;BME280;30230;47.520;19.016;2023-04-04T05:57:54;99171.47;;;2.27;46.29
42289;BME280;30230;47.520;19.016;2023-04-04T05:59:55;99166.69;;;2.13;47.36
42289;BME280;30230;47.520;19.016;2023-04-04T06:01:56;99183.44;;;2.23;47.55
42289;BME280;30230;47.520;19.016;2023-04-04T06:03:56;99171.25;;;2.20;47.16
42289;BME280;30230;47.520;19.016;2023-04-04T06:05:59;99163.09;;;2.22;47.59
42289;BME280;30230;47.520;19.016;2023-04-04T06:08:00;99183.13;;;2.44;50.23
42289;BME280;30230;47.520;19.016;2023-04-04T06:10:02;99175.03;;;2.53;47.15
42289;BME280;30230;47.520;19.016;2023-04-04T06:12:02;99182.75;;;2.39;47.70
42289;BME280;30230;47.520;19.016;2023-04-04T06:14:03;99177.78;;;2.44;48.18
42289;BME280;30230;47.520;19.016;2023-04-04T06:16:04;99166.72;;;2.56;47.38
42289;BME280;30230;47.520;19.016;2023-04-04T06:18:05;99167.44;;;2.41;46.45
42289;BME280;30230;47.520;19.016;2023-04-04T06:20:06;99178.38;;;2.38;46.46
42289;BME280;30230;47.520;19.016;2023-04-04T06:22:07;99170.75;;;2.43;48.52
42289;BME280;30230;47.520;19.016;2023-04-04T06:24:07;99170.19;;;2.49;49.72
42289;BME280;30230;47.520;19.016;2023-04-04T06:26:08;99184.38;;;3.01;62.38
42289;BME280;30230;47.520;19.016;2023-04-04T06:28:08;99172.59;;;3.12;48.89
42289;BME280;30230;47.520;19.016;2023-04-04T06:30:10;99182.94;;;3.15;48.77
42289;BME280;30230;47.520;19.016;2023-04-04T06:32:13;99174.94;;;3.15;48.51
42289;BME280;30230;47.520;19.016;2023-04-04T06:34:14;99175.94;;;3.14;48.39
42289;BME280;30230;47.520;19.016;2023-04-04T06:36:15;99169.84;;;3.30;47.48
42289;BME280;30230;47.520;19.016;2023-04-04T06:38:15;99149.38;;;3.38;47.30
42289;BME280;30230;47.520;19.016;2023-04-04T06:40:16;99145.44;;;3.17;46.33
42289;BME280;30230;47.520;19.016;2023-04-04T06:42:16;99144.31;;;3.27;46.68
42289;BME280;30230;47.520;19.016;2023-04-04T06:44:17;99152.63;;;3.24;46.44
42289;BME280;30230;47.520;19.016;2023-04-04T06:46:17;99149.97;;;3.24;47.41
42289;BME280;30230;47.520;19.016;2023-04-04T06:48:17;99144.34;;;3.35;47.37
42289;BME280;30230;47.520;19.016;2023-04-04T06:50:18;99148.34;;;3.31;46.21
42289;BME280;30230;47.520;19.016;2023-04-04T06:52:18;99141.81;;;3.00;47.09
42289;BME280;30230;47.520;19.016;2023-04-04T06:54:19;99134.09;;;2.88;46.85
42289;BME280;30230;47.520;19.016;2023-04-04T06:56:19;99147.81;;;3.28;62.18
42289;BME280;30230;47.520;19.016;2023-04-04T06:58:20;99147.78;;;3.20;48.12
42289;BME280;30230;47.520;19.016;2023-04-04T07:00:21;99141.22;;;3.06;47.58
42289;BME280;30230;47.520;19.016;2023-04-04T07:02:21;99138.78;;;3.21;46.43
42289;BME280;30230;47.520;19.016;2023-04-04T07:04:21;99151.25;;;3.12;47.67
42289;BME280;30230;47.520;19.016;2023-04-04T07:06:22;99144.78;;;3.23;46.67
42289;BME280;30230;47.520;19.016;2023-04-04T07:08:23;99143.66;;;3.33;47.00
42289;BME280;30230;47.520;19.016;2023-04-04T07:10:24;99139.69;;;3.37;47.36
42289;BME280;30230;47.520;19.016;2023-04-04T07:12:25;99154.94;;;3.53;46.01
42289;BME280;30230;47.520;19.016;2023-04-04T07:14:25;99155.47;;;3.57;46.30
42289;BME280;30230;47.520;19.016;2023-04-04T07:16:26;99150.94;;;3.57;47.62
42289;BME280;30230;47.520;19.016;2023-04-04T07:18:26;99152.94;;;3.55;45.82
42289;BME280;30230;47.520;19.016;2023-04-04T07:20:27;99155.28;;;3.66;46.39
42289;BME280;30230;47.520;19.016;2023-04-04T07:22:27;99156.47;;;3.64;46.97
42289;BME280;30230;47.520;19.016;2023-04-04T07:24:27;99158.50;;;3.70;46.65
42289;BME280;30230;47.520;19.016;2023-04-04T07:26:28;99164.91;;;3.51;47.05
42289;BME280;30230;47.520;19.016;2023-04-04T07:28:28;99155.28;;;3.66;46.98
42289;BME280;30230;47.520;19.016;2023-04-04T07:30:29;99173.16;;;3.58;45.42
42289;BME280;30230;47.520;19.016;2023-04-04T07:32:31;99170.13;;;3.53;46.46
42289;BME280;30230;47.520;19.016;2023-04-04T07:34:32;99164.78;;;3.61;45.16
42289;BME280;30230;47.520;19.016;2023-04-04T07:36:32;99158.31;;;3.63;44.87
42289;BME280;30230;47.520;19.016;2023-04-04T07:38:33;99159.19;;;3.72;44.96
42289;BME280;30230;47.520;19.016;2023-04-04T07:40:33;99152.88;;;3.98;45.31
42289;BME280;30230;47.520;19.016;2023-04-04T07:42:34;99155.25;;;4.09;44.77
42289;BME280;30230;47.520;19.016;2023-04-04T07:44:37;99149.41;;;4.30;44.31
42289;BME280;30230;47.520;19.016;2023-04-04T07:46:38;99154.91;;;4.77;44.83
42289;BME280;30230;47.520;19.016;2023-04-04T07:48:38;99159.19;;;5.11;43.68
42289;BME280;30230;47.520;19.016;2023-04-04T07:50:39;99152.06;;;5.42;43.58
42289;BME280;30230;47.520;19.016;2023-04-04T07:52:40;99149.56;;;5.41;42.53
42289;BME280;30230;47.520;19.016;2023-04-04T07:54:40;99148.72;;;4.85;42.79
42289;BME280;30230;47.520;19.016;2023-04-04T07:56:41;99155.88;;;5.01;44.31
42289;BME280;30230;47.520;19.016;2023-04-04T07:58:41;99151.16;;;5.11;43.12
42289;BME280;30230;47.520;19.016;2023-04-04T08:00:41;99145.59;;;5.20;42.25
42289;BME280;30230;47.520;19.016;2023-04-04T08:02:42;99159.88;;;5.13;42.04
42289;BME280;30230;47.520;19.016;2023-04-04T08:04:44;99166.09;;;4.97;42.71
42289;BME280;30230;47.520;19.016;2023-04-04T08:06:45;99156.56;;;4.94;43.17
42289;BME280;30230;47.520;19.016;2023-04-04T08:08:45;99156.03;;;4.91;43.69
42289;BME280;30230;47.520;19.016;2023-04-04T08:10:47;99160.72;;;5.05;42.64
42289;BME280;30230;47.520;19.016;2023-04-04T08:12:48;99156.72;;;4.93;42.59
42289;BME280;30230;47.520;19.016;2023-04-04T08:14:48;99153.50;;;5.06;44.36
42289;BME280;30230;47.520;19.016;2023-04-04T08:16:49;99148.88;;;4.91;42.55
42289;BME280;30230;47.520;19.016;2023-04-04T08:18:49;99152.38;;;4.92;42.96
42289;BME280;30230;47.520;19.016;2023-04-04T08:20:49;99154.56;;;4.88;42.46
42289;BME280;30230;47.520;19.016;2023-04-04T08:22:50;99168.59;;;4.90;42.23
42289;BME280;30230;47.520;19.016;2023-04-04T08:24:50;99170.25;;;5.00;42.81
42289;BME280;30230;47.520;19.016;2023-04-04T08:26:51;99163.00;;;5.25;41.65
42289;BME280;30230;47.520;19.016;2023-04-04T08:28:51;99171.97;;;5.48;43.58
42289;BME280;30230;47.520;19.016;2023-04-04T08:30:52;99166.44;;;5.49;41.64
42289;BME280;30230;47.520;19.016;2023-04-04T08:32:54;99156.53;;;5.58;41.50
42289;BME280;30230;47.520;19.016;2023-04-04T08:34:55;99156.13;;;5.38;40.21
42289;BME280;30230;47.520;19.016;2023-04-04T08:36:55;99160.91;;;5.51;42.35
42289;BME280;30230;47.520;19.016;2023-04-04T08:38:56;99160.69;;;5.69;42.16
42289;BME280;30230;47.520;19.016;2023-04-04T08:40:56;99163.91;;;5.56;42.05
42289;BME280;30230;47.520;19.016;2023-04-04T08:42:57;99150.00;;;5.53;42.98
42289;BME280;30230;47.520;19.016;2023-04-04T08:45:02;99161.84;;;5.66;42.24
42289;BME280;30230;47.520;19.016;2023-04-04T08:47:04;99145.63;;;5.60;41.02
42289;BME280;30230;47.520;19.016;2023-04-04T08:49:05;99132.06;;;5.61;40.97
42289;BME280;30230;47.520;19.016;2023-04-04T08:51:06;99125.56;;;5.56;39.57
42289;BME280;30230;47.520;19.016;2023-04-04T08:53:09;99137.25;;;5.94;41.32
42289;BME280;30230;47.520;19.016;2023-04-04T08:55:10;99140.91;;;5.70;39.91
42289;BME280;30230;47.520;19.016;2023-04-04T08:57:11;99141.63;;;5.95;39.82
42289;BME280;30230;47.520;19.016;2023-04-04T08:59:11;99140.09;;;6.00;40.43
42289;BME280;30230;47.520;19.016;2023-04-04T09:01:14;99125.69;;;5.93;40.21
42289;BME280;30230;47.520;19.016;2023-04-04T09:03:28;99129.00;;;6.04;40.48
42289;BME280;30230;47.520;19.016;2023-04-04T09:05:32;99122.88;;;6.18;41.10
42289;BME280;30230;47.520;19.016;2023-04-04T09:07:34;99124.25;;;6.37;39.51
42289;BME280;30230;47.520;19.016;2023-04-04T09:09:35;99128.00;;;6.28;39.37
42289;BME280;30230;47.520;19.016;2023-04-04T09:11:36;99131.56;;;6.43;39.89
42289;BME280;30230;47.520;19.016;2023-04-04T09:13:38;99127.69;;;6.22;39.88
42289;BME280;30230;47.520;19.016;2023-04-04T09:15:45;99141.06;;;5.99;39.61
42289;BME280;30230;47.520;19.016;2023-04-04T09:17:46;99133.25;;;6.21;40.86
42289;BME280;30230;47.520;19.016;2023-04-04T09:19:48;99121.31;;;6.23;39.77
42289;BME280;30230;47.520;19.016;2023-04-04T09:21:49;99123.06;;;6.16;40.13
42289;BME280;30230;47.520;19.016;2023-04-04T09:24:01;99121.59;;;6.51;41.05
42289;BME280;30230;47.520;19.016;2023-04-04T09:26:02;99126.78;;;6.53;40.81
42289;BME280;30230;47.520;19.016;2023-04-04T09:28:03;99130.00;;;6.48;40.54
42289;BME280;30230;47.520;19.016;2023-04-04T09:30:05;99122.34;;;6.60;38.73
42289;BME280;30230;47.520;19.016;2023-04-04T09:32:12;99127.38;;;6.40;40.30
42289;BME280;30230;47.520;19.016;2023-04-04T09:34:18;99130.53;;;6.44;40.79
42289;BME280;30230;47.520;19.016;2023-04-04T09:36:18;99130.94;;;6.56;41.50
42289;BME280;30230;47.520;19.016;2023-04-04T09:38:25;99129.31;;;6.69;40.30
42289;BME280;30230;47.520;19.016;2023-04-04T09:40:28;99121.91;;;6.57;39.84
42289;BME280;30230;47.520;19.016;2023-04-04T09:42:29;99122.72;;;6.57;39.75
42289;BME280;30230;47.520;19.016;2023-04-04T09:44:30;99127.75;;;6.75;39.20
42289;BME280;30230;47.520;19.016;2023-04-04T09:46:33;99133.22;;;6.96;37.91
42289;BME280;30230;47.520;19.016;2023-04-04T09:48:36;99134.28;;;7.10;38.61
42289;BME280;30230;47.520;19.016;2023-04-04T09:50:44;99116.97;;;6.60;39.04
42289;BME280;30230;47.520;19.016;2023-04-04T09:52:47;99112.75;;;6.81;38.30
42289;BME280;30230;47.520;19.016;2023-04-04T09:54:55;99111.47;;;7.06;38.75
42289;BME280;30230;47.520;19.016;2023-04-04T09:56:56;99109.06;;;7.11;38.67
42289;BME280;30230;47.520;19.016;2023-04-04T09:58:56;99112.78;;;7.25;39.33
42289;BME280;30230;47.520;19.016;2023-04-04T10:01:01;99106.00;;;7.44;37.59
42289;BME280;30230;47.520;19.016;2023-04-04T10:03:02;99113.81;;;7.24;37.82
42289;BME280;30230;47.520;19.016;2023-04-04T10:05:04;99125.38;;;7.39;38.66
42289;BME280;30230;47.520;19.016;2023-04-04T10:07:11;99124.44;;;7.17;37.77
42289;BME280;30230;47.520;19.016;2023-04-04T10:09:14;99125.59;;;7.08;37.84
42289;BME280;30230;47.520;19.016;2023-04-04T10:11:27;99123.97;;;7.28;38.37
42289;BME280;30230;47.520;19.016;2023-04-04T10:13:30;99110.94;;;7.11;38.86
42289;BME280;30230;47.520;19.016;2023-04-04T10:15:34;99099.16;;;7.12;38.79
42289;BME280;30230;47.520;19.016;2023-04-04T10:17:38;99122.78;;;7.16;39.04
42289;BME280;30230;47.520;19.016;2023-04-04T10:19:40;99125.84;;;7.28;37.56
42289;BME280;30230;47.520;19.016;2023-04-04T10:21:41;99121.75;;;7.17;37.95
42289;BME280;30230;47.520;19.016;2023-04-04T10:23:45;99111.22;;;7.16;36.88
42289;BME280;30230;47.520;19.016;2023-04-04T10:25:46;99114.91;;;7.44;38.90
42289;BME280;30230;47.520;19.016;2023-04-04T10:27:46;99108.44;;;7.24;38.17
42289;BME280;30230;47.520;19.016;2023-04-04T10:29:47;99091.94;;;7.27;38.05
42289;BME280;30230;47.520;19.016;2023-04-04T10:31:52;99091.09;;;7.26;37.13
42289;BME280;30230;47.520;19.016;2023-04-04T10:36:13;99086.75;;;7.40;37.02
42289;BME280;30230;47.520;19.016;2023-04-04T10:38:17;99078.72;;;7.62;38.51
42289;BME280;30230;47.520;19.016;2023-04-04T10:40:23;99074.78;;;7.79;39.67
42289;BME280;30230;47.520;19.016;2023-04-04T10:42:31;99074.09;;;7.92;37.74
42289;BME280;30230;47.520;19.016;2023-04-04T10:44:38;99074.09;;;7.92;36.15
42289;BME280;30230;47.520;19.016;2023-04-04T10:46:40;99076.44;;;7.80;36.84
42289;BME280;30230;47.520;19.016;2023-04-04T10:48:43;99071.09;;;8.01;36.91